createdAt,value
2023-05-10T00:00:44.988Z,10.61
2023-05-10T00:03:12.218Z,10.60
2023-05-10T00:05:39.275Z,10.62
2023-05-10T00:08:06.473Z,10.61
2023-05-10T00:10:33.551Z,10.57
2023-05-10T00:13:00.743Z,10.58
2023-05-10T00:15:27.823Z,10.57
2023-05-10T00:17:54.937Z,10.56
2023-05-10T00:20:22.075Z,10.56
2023-05-10T00:22:49.220Z,10.53
2023-05-10T00:25:16.396Z,10.53
2023-05-10T00:27:43.404Z,10.51
2023-05-10T00:30:11.841Z,10.50
2023-05-10T00:32:38.896Z,10.47
2023-05-10T00:35:06.282Z,10.50
2023-05-10T00:37:33.536Z,10.47
2023-05-10T00:40:00.593Z,10.51
2023-05-10T00:42:27.690Z,10.51
2023-05-10T00:44:55.894Z,10.47
2023-05-10T00:47:23.886Z,10.42
2023-05-10T00:49:51.484Z,10.41
2023-05-10T00:52:18.643Z,10.41
2023-05-10T00:54:45.935Z,10.37
2023-05-10T00:57:13.022Z,10.38
2023-05-10T00:59:40.122Z,10.44
2023-05-10T01:02:07.903Z,10.44
2023-05-10T01:04:36.640Z,10.48
2023-05-10T01:07:03.989Z,10.45
2023-05-10T01:09:31.185Z,10.46
2023-05-10T01:11:58.317Z,10.44
2023-05-10T01:14:26.480Z,10.45
2023-05-10T01:16:54.397Z,10.43
2023-05-10T01:19:25.214Z,10.45
2023-05-10T01:22:29.721Z,10.45
2023-05-10T01:25:35.559Z,10.46
2023-05-10T01:28:40.038Z,10.42
2023-05-10T01:31:34.675Z,10.41
2023-05-10T01:34:17.352Z,10.38
2023-05-10T01:36:58.013Z,10.37
2023-05-10T01:39:38.397Z,10.36
2023-05-10T01:42:11.869Z,10.38
2023-05-10T01:44:47.618Z,10.37
2023-05-10T01:47:34.003Z,10.36
2023-05-10T01:50:05.759Z,10.29
2023-05-10T01:52:42.189Z,10.30
2023-05-10T01:55:21.419Z,10.32
2023-05-10T01:57:52.066Z,10.31
2023-05-10T02:00:20.928Z,10.33
2023-05-10T02:02:50.842Z,10.34
2023-05-10T02:05:19.045Z,10.33
2023-05-10T02:07:47.012Z,10.32
2023-05-10T02:10:15.735Z,10.29
2023-05-10T02:12:47.060Z,10.30
2023-05-10T02:15:19.821Z,10.31
2023-05-10T02:17:48.511Z,10.31
2023-05-10T02:20:17.700Z,10.27
2023-05-10T02:22:47.148Z,10.28
2023-05-10T02:25:15.029Z,10.33
2023-05-10T02:27:44.480Z,10.31
2023-05-10T02:30:12.979Z,10.34
2023-05-10T02:32:40.874Z,10.39
2023-05-10T02:35:09.604Z,10.42
2023-05-10T02:37:38.548Z,10.43
2023-05-10T02:40:07.546Z,10.38
2023-05-10T02:42:38.138Z,10.48
2023-05-10T02:45:12.172Z,10.51
2023-05-10T02:47:39.645Z,10.50
2023-05-10T02:50:07.587Z,10.55
2023-05-10T02:52:44.532Z,10.54
2023-05-10T02:55:16.448Z,10.58
2023-05-10T02:57:52.085Z,10.58
2023-05-10T03:00:19.466Z,10.63
2023-05-10T03:02:46.464Z,10.66
2023-05-10T03:05:13.479Z,10.70
2023-05-10T03:07:40.599Z,10.74
2023-05-10T03:10:08.651Z,10.78
2023-05-10T03:12:59.782Z,10.81
2023-05-10T03:15:48.435Z,10.86
2023-05-10T03:18:45.440Z,10.90
2023-05-10T03:21:14.807Z,10.98
2023-05-10T03:23:46.952Z,11.02
2023-05-10T03:26:33.918Z,11.06
2023-05-10T03:29:09.923Z,11.13
2023-05-10T03:31:37.109Z,11.15
2023-05-10T03:34:04.307Z,11.21
2023-05-10T03:36:31.683Z,11.25
2023-05-10T03:38:59.686Z,11.22
2023-05-10T03:41:27.458Z,11.30
2023-05-10T03:43:55.089Z,11.37
2023-05-10T03:46:22.772Z,11.39
2023-05-10T03:48:49.810Z,11.45
2023-05-10T03:51:16.885Z,11.51
2023-05-10T03:53:44.107Z,11.55
2023-05-10T03:56:11.311Z,11.60
2023-05-10T03:58:38.808Z,11.66
2023-05-10T04:01:05.949Z,11.71
2023-05-10T04:03:33.085Z,11.79
2023-05-10T04:06:03.898Z,11.87
2023-05-10T04:08:31.517Z,11.94
2023-05-10T04:11:08.802Z,12.00
2023-05-10T04:13:36.387Z,12.06
2023-05-10T04:16:03.935Z,12.11
2023-05-10T04:18:31.294Z,12.18
2023-05-10T04:20:58.631Z,12.22
2023-05-10T04:23:25.680Z,12.31
2023-05-10T04:25:52.759Z,12.37
2023-05-10T04:28:19.802Z,12.41
2023-05-10T04:30:49.944Z,12.45
2023-05-10T04:33:16.991Z,12.55
2023-05-10T04:35:45.728Z,12.61
2023-05-10T04:38:12.689Z,12.72
2023-05-10T04:40:39.667Z,12.76
2023-05-10T04:43:06.731Z,12.86
2023-05-10T04:45:33.758Z,12.96
2023-05-10T04:48:00.884Z,13.08
2023-05-10T04:50:27.871Z,13.22
2023-05-10T04:52:56.705Z,13.38
2023-05-10T04:55:23.761Z,13.51
2023-05-10T04:57:50.899Z,13.63
2023-05-10T05:00:18.348Z,13.76
2023-05-10T05:02:48.981Z,13.90
2023-05-10T05:05:16.072Z,14.03
2023-05-10T05:07:43.135Z,14.16
2023-05-10T05:10:10.297Z,14.26
2023-05-10T05:12:37.226Z,14.39
2023-05-10T05:15:04.619Z,14.60
2023-05-10T05:17:32.645Z,14.80
2023-05-10T05:19:59.776Z,15.04
2023-05-10T05:22:29.149Z,15.25
2023-05-10T05:24:57.043Z,15.52
2023-05-10T05:27:25.417Z,15.77
2023-05-10T05:29:54.064Z,16.09
2023-05-10T05:32:21.385Z,16.41
2023-05-10T05:34:49.111Z,16.76
2023-05-10T05:37:17.319Z,17.07
2023-05-10T05:39:44.786Z,17.31
2023-05-10T05:42:12.805Z,17.52
2023-05-10T05:44:40.093Z,17.71
2023-05-10T05:47:07.743Z,17.85
2023-05-10T05:49:34.747Z,17.94
2023-05-10T05:52:02.471Z,18.07
2023-05-10T05:54:29.844Z,18.17
2023-05-10T05:56:59.263Z,18.25
2023-05-10T05:59:28.274Z,18.39
2023-05-10T06:01:55.678Z,18.39
2023-05-10T06:04:22.905Z,18.37
2023-05-10T06:06:49.972Z,18.48
2023-05-10T06:09:17.176Z,18.55
2023-05-10T06:11:44.316Z,18.61
2023-05-10T06:14:11.457Z,18.58
2023-05-10T06:16:38.515Z,18.62
2023-05-10T06:19:05.612Z,18.60
2023-05-10T06:21:32.697Z,18.66
2023-05-10T06:23:59.703Z,18.59
2023-05-10T06:26:26.966Z,18.63
2023-05-10T06:28:54.126Z,18.63
2023-05-10T06:31:21.218Z,18.64
2023-05-10T06:33:48.250Z,18.61
2023-05-10T06:36:15.552Z,18.63
2023-05-10T06:38:42.539Z,18.68
2023-05-10T06:41:09.662Z,18.76
2023-05-10T06:43:36.708Z,18.80
2023-05-10T06:46:03.721Z,18.90
2023-05-10T06:48:30.722Z,19.05
2023-05-10T06:50:57.726Z,19.18
2023-05-10T06:53:25.089Z,19.50
2023-05-10T06:55:52.208Z,19.88
2023-05-10T06:58:19.239Z,20.29
2023-05-10T07:00:47.865Z,20.68
2023-05-10T07:03:15.199Z,21.01
2023-05-10T07:05:42.252Z,21.33
2023-05-10T07:08:09.551Z,21.73
2023-05-10T07:10:36.901Z,21.93
2023-05-10T07:13:04.116Z,22.19
2023-05-10T07:15:31.245Z,22.37
2023-05-10T07:17:58.699Z,22.61
2023-05-10T07:20:25.955Z,22.77
2023-05-10T07:22:52.984Z,22.89
2023-05-10T07:25:20.201Z,23.07
2023-05-10T07:27:49.617Z,23.09
2023-05-10T07:30:16.989Z,23.04
2023-05-10T07:32:44.049Z,23.30
2023-05-10T07:35:11.161Z,23.42
2023-05-10T07:37:38.334Z,23.48
2023-05-10T07:40:05.878Z,23.63
2023-05-10T07:42:32.902Z,23.76
2023-05-10T07:44:59.979Z,24.00
2023-05-10T07:47:27.167Z,24.40
2023-05-10T07:49:54.284Z,24.70
2023-05-10T07:52:22.670Z,25.05
2023-05-10T07:54:50.050Z,25.54
2023-05-10T07:57:18.724Z,26.21
2023-05-10T07:59:46.398Z,27.18
2023-05-10T08:02:13.507Z,28.28
2023-05-10T08:04:40.884Z,29.25
2023-05-10T08:07:08.367Z,29.75
2023-05-10T08:09:35.532Z,30.44
2023-05-10T08:12:02.992Z,31.14
2023-05-10T08:14:31.010Z,31.87
2023-05-10T08:16:58.013Z,32.06
2023-05-10T08:19:25.142Z,32.55
2023-05-10T08:21:58.303Z,33.24
2023-05-10T08:24:25.484Z,33.71
2023-05-10T08:26:52.488Z,34.03
2023-05-10T08:29:19.454Z,34.33
2023-05-10T08:31:46.577Z,34.23
2023-05-10T08:34:13.662Z,33.75
2023-05-10T08:36:40.754Z,32.97
2023-05-10T08:39:16.242Z,33.27
2023-05-10T08:41:55.131Z,33.60
2023-05-10T08:44:22.263Z,33.12
2023-05-10T08:46:54.786Z,31.55
2023-05-10T08:49:22.789Z,30.63
2023-05-10T08:51:56.063Z,30.27
2023-05-10T08:54:24.083Z,30.03
2023-05-10T08:56:51.126Z,30.52
2023-05-10T08:59:18.282Z,30.87
2023-05-10T09:01:57.151Z,30.96
2023-05-10T09:04:24.386Z,29.51
2023-05-10T09:06:51.869Z,28.76
2023-05-10T09:09:20.658Z,28.17
2023-05-10T09:11:48.258Z,27.25
2023-05-10T09:14:16.921Z,26.84
2023-05-10T09:16:44.338Z,27.29
2023-05-10T09:19:11.779Z,27.47
2023-05-10T09:21:39.520Z,27.56
2023-05-10T09:24:08.194Z,27.38
2023-05-10T09:26:36.777Z,27.26
2023-05-10T09:29:04.318Z,26.73
2023-05-10T09:31:57.485Z,25.95
2023-05-10T09:34:35.773Z,25.60
2023-05-10T09:37:05.535Z,24.87
2023-05-10T09:39:33.565Z,24.34
2023-05-10T09:42:04.800Z,24.50
2023-05-10T09:44:33.867Z,24.15
2023-05-10T09:47:04.939Z,23.93
2023-05-10T09:49:32.502Z,23.02
2023-05-10T09:52:03.862Z,23.13
2023-05-10T09:54:31.926Z,22.96
2023-05-10T09:56:59.502Z,22.94
2023-05-10T09:59:31.494Z,22.93
2023-05-10T10:02:04.990Z,22.59
2023-05-10T10:04:41.272Z,22.59
2023-05-10T10:07:08.773Z,22.64
2023-05-10T10:09:36.789Z,22.70
2023-05-10T10:12:05.058Z,22.62
2023-05-10T10:14:32.783Z,22.35
2023-05-10T10:17:08.636Z,22.14
2023-05-10T10:19:38.189Z,22.08
2023-05-10T10:22:07.035Z,22.07
2023-05-10T10:24:34.492Z,22.02
2023-05-10T10:27:21.964Z,22.04
2023-05-10T10:30:01.833Z,22.02
2023-05-10T10:32:50.578Z,21.89
2023-05-10T10:35:21.401Z,22.14
2023-05-10T10:37:51.330Z,22.17
2023-05-10T10:40:36.943Z,22.33
2023-05-10T10:43:28.099Z,22.31
2023-05-10T10:46:16.613Z,22.20
2023-05-10T10:49:11.637Z,22.02
2023-05-10T10:51:42.079Z,22.03
2023-05-10T10:54:13.143Z,22.06
2023-05-10T10:56:40.380Z,22.04
2023-05-10T10:59:10.399Z,21.84
2023-05-10T11:01:37.793Z,21.73
2023-05-10T11:04:05.370Z,21.60
2023-05-10T11:06:33.687Z,21.61
2023-05-10T11:09:13.591Z,21.59
2023-05-10T11:11:56.581Z,21.49
2023-05-10T11:14:24.245Z,21.33
2023-05-10T11:16:51.908Z,21.28
2023-05-10T11:19:20.695Z,21.22
2023-05-10T11:22:19.234Z,21.29
2023-05-10T11:24:59.830Z,21.29
2023-05-10T11:27:27.552Z,21.24
2023-05-10T11:29:55.174Z,21.18
2023-05-10T11:32:23.330Z,21.23
2023-05-10T11:34:50.634Z,21.15
2023-05-10T11:37:19.737Z,21.08
2023-05-10T11:39:48.752Z,21.05
2023-05-10T11:42:16.289Z,21.06
2023-05-10T11:44:45.510Z,21.01
2023-05-10T11:47:13.522Z,20.91
2023-05-10T11:49:44.524Z,20.81
2023-05-10T11:52:14.644Z,20.76
2023-05-10T11:54:57.574Z,20.66
2023-05-10T11:57:28.114Z,20.55
2023-05-10T11:59:56.344Z,20.57
2023-05-10T12:02:23.921Z,20.51
2023-05-10T12:04:52.293Z,20.38
2023-05-10T12:07:20.035Z,20.32
2023-05-10T12:10:08.121Z,20.27
2023-05-10T12:12:49.336Z,20.11
2023-05-10T12:15:23.648Z,20.13
2023-05-10T12:17:52.889Z,20.09
2023-05-10T12:20:25.465Z,20.08
2023-05-10T12:22:55.544Z,20.16
2023-05-10T12:25:24.756Z,20.18
2023-05-10T12:30:43.027Z,20.20
2023-05-10T12:33:12.672Z,20.26
2023-05-10T12:36:01.138Z,20.23
2023-05-10T12:38:39.565Z,20.19
2023-05-10T12:41:08.967Z,20.11
2023-05-10T12:43:37.257Z,20.10
2023-05-10T12:46:16.193Z,20.02
2023-05-10T12:48:44.998Z,19.83
2023-05-10T12:51:18.389Z,19.74
2023-05-10T12:53:49.733Z,19.64
2023-05-10T12:56:17.018Z,19.59
2023-05-10T12:58:49.195Z,19.59
2023-05-10T13:01:16.568Z,19.52
2023-05-10T13:03:44.397Z,19.41
2023-05-10T13:06:11.421Z,19.30
2023-05-10T13:08:38.383Z,19.23
2023-05-10T13:11:05.619Z,19.19
2023-05-10T13:13:32.718Z,19.10
2023-05-10T13:15:59.728Z,18.98
2023-05-10T13:18:27.770Z,18.88
2023-05-10T13:20:55.396Z,18.80
2023-05-10T13:23:22.473Z,18.75
2023-05-10T13:25:49.481Z,18.77
2023-05-10T13:28:16.468Z,18.76
2023-05-10T13:30:43.651Z,18.69
2023-05-10T13:33:11.204Z,18.63
2023-05-10T13:35:38.246Z,18.56
2023-05-10T13:38:05.270Z,18.50
2023-05-10T13:40:32.396Z,18.46
2023-05-10T13:42:59.488Z,18.47
2023-05-10T13:45:26.601Z,18.52
2023-05-10T13:47:53.592Z,18.46
2023-05-10T13:50:20.908Z,18.47
2023-05-10T13:52:47.911Z,18.32
2023-05-10T13:55:15.485Z,18.27
2023-05-10T13:57:43.877Z,18.08
2023-05-10T14:00:11.438Z,18.09
2023-05-10T14:02:38.514Z,18.08
2023-05-10T14:05:05.996Z,18.15
2023-05-10T14:07:32.978Z,18.12
2023-05-10T14:10:00.038Z,18.09
2023-05-10T14:12:27.112Z,17.93
2023-05-10T14:14:54.057Z,17.86
2023-05-10T14:17:21.016Z,17.89
2023-05-10T14:19:48.171Z,17.87
2023-05-10T14:22:15.230Z,17.77
2023-05-10T14:24:42.424Z,17.73
2023-05-10T14:27:09.485Z,17.78
2023-05-10T14:29:36.971Z,17.83
2023-05-10T14:32:04.039Z,17.80
2023-05-10T14:34:31.039Z,17.78
2023-05-10T14:36:57.975Z,17.78
2023-05-10T14:39:24.997Z,17.78
2023-05-10T14:41:53.286Z,17.78
2023-05-10T14:44:20.598Z,17.75
2023-05-10T14:46:48.329Z,17.72
2023-05-10T14:49:15.508Z,17.60
2023-05-10T14:51:42.605Z,17.55
2023-05-10T14:54:09.556Z,17.46
2023-05-10T14:56:38.370Z,17.54
2023-05-10T14:59:05.398Z,17.53
2023-05-10T15:01:34.054Z,17.52
2023-05-10T15:04:01.804Z,17.47
2023-05-10T15:06:34.048Z,17.43
2023-05-10T15:09:02.258Z,17.45
2023-05-10T15:11:30.075Z,17.42
2023-05-10T15:13:57.044Z,17.41
2023-05-10T15:16:24.144Z,17.38
2023-05-10T15:18:51.437Z,17.37
2023-05-10T15:21:18.489Z,17.32
2023-05-10T15:23:45.583Z,17.31
2023-05-10T15:26:12.680Z,17.25
2023-05-10T15:28:39.733Z,17.21
2023-05-10T15:31:06.959Z,17.17
2023-05-10T15:33:34.092Z,17.11
2023-05-10T15:36:01.081Z,17.05
2023-05-10T15:38:28.167Z,17.03
2023-05-10T15:40:58.521Z,17.00
2023-05-10T15:43:25.726Z,16.96
2023-05-10T15:45:52.737Z,16.92
2023-05-10T15:48:19.792Z,16.88
2023-05-10T15:50:46.808Z,16.87
2023-05-10T15:53:13.929Z,16.78
2023-05-10T15:55:41.246Z,16.76
2023-05-10T15:58:08.329Z,16.74
2023-05-10T16:00:35.966Z,16.71
2023-05-10T16:03:03.274Z,16.68
2023-05-10T16:05:33.623Z,16.66
2023-05-10T16:08:03.170Z,16.62
2023-05-10T16:10:33.410Z,16.58
2023-05-10T16:13:00.740Z,16.53
2023-05-10T16:15:28.019Z,16.51
2023-05-10T16:17:55.417Z,16.40
2023-05-10T16:20:22.511Z,16.40
2023-05-10T16:22:49.763Z,16.33
2023-05-10T16:25:17.301Z,16.26
2023-05-10T16:27:44.686Z,16.26
2023-05-10T16:30:12.056Z,16.18
2023-05-10T16:32:39.116Z,16.14
2023-05-10T16:35:06.850Z,16.11
2023-05-10T16:37:33.900Z,16.11
2023-05-10T16:40:00.940Z,16.10
2023-05-10T16:42:28.276Z,16.08
2023-05-10T16:44:55.348Z,16.05
2023-05-10T16:47:22.401Z,16.04
2023-05-10T16:49:49.478Z,15.98
2023-05-10T16:52:16.690Z,15.98
2023-05-10T16:54:43.725Z,15.94
2023-05-10T16:57:10.888Z,15.94
2023-05-10T16:59:38.435Z,15.91
2023-05-10T17:02:05.575Z,15.89
2023-05-10T17:04:32.675Z,15.80
2023-05-10T17:06:59.631Z,15.80
2023-05-10T17:09:26.782Z,15.83
2023-05-10T17:11:53.734Z,15.80
2023-05-10T17:14:20.757Z,15.78
2023-05-10T17:16:48.639Z,15.75
2023-05-10T17:19:15.759Z,15.73
2023-05-10T17:21:42.819Z,15.65
2023-05-10T17:24:09.948Z,15.68
2023-05-10T17:26:37.324Z,15.66
2023-05-10T17:29:04.361Z,15.64
2023-05-10T17:31:32.716Z,15.65
2023-05-10T17:34:01.051Z,15.62
2023-05-10T17:36:29.530Z,15.60
2023-05-10T17:38:56.580Z,15.55
2023-05-10T17:41:23.650Z,15.56
2023-05-10T17:43:50.757Z,15.53
2023-05-10T17:46:23.912Z,15.47
2023-05-10T17:48:50.985Z,15.43
2023-05-10T17:51:19.163Z,15.44
2023-05-10T17:53:46.216Z,15.41
2023-05-10T17:56:13.577Z,15.45
2023-05-10T17:58:40.617Z,15.43
2023-05-10T18:01:07.780Z,15.39
2023-05-10T18:03:36.150Z,15.41
2023-05-10T18:06:04.520Z,15.40
2023-05-10T18:08:31.855Z,15.40
2023-05-10T18:11:01.345Z,15.39
2023-05-10T18:13:29.247Z,15.40
2023-05-10T18:15:56.429Z,15.37
2023-05-10T18:18:23.476Z,15.33
2023-05-10T18:20:56.606Z,15.30
2023-05-10T18:23:24.742Z,15.31
2023-05-10T18:25:52.213Z,15.29
2023-05-10T18:28:19.267Z,15.31
2023-05-10T18:30:46.420Z,15.30
2023-05-10T18:33:13.790Z,15.29
2023-05-10T18:35:41.146Z,15.24
2023-05-10T18:38:09.928Z,15.20
2023-05-10T18:40:37.211Z,15.14
2023-05-10T18:43:04.428Z,15.12
2023-05-10T18:45:31.801Z,15.13
2023-05-10T18:47:59.008Z,15.08
2023-05-10T18:50:26.108Z,15.08
2023-05-10T18:52:54.173Z,15.00
2023-05-10T18:55:21.183Z,15.00
2023-05-10T18:57:48.371Z,14.96
2023-05-10T19:00:15.565Z,14.97
2023-05-10T19:02:43.092Z,14.95
2023-05-10T19:05:10.449Z,14.94
2023-05-10T19:07:39.576Z,14.94
2023-05-10T19:10:07.164Z,14.96
2023-05-10T19:12:34.326Z,14.97
2023-05-10T19:15:01.335Z,15.00
2023-05-10T19:17:28.423Z,14.99
2023-05-10T19:19:56.997Z,14.99
2023-05-10T19:22:35.977Z,14.97
2023-05-10T19:25:11.674Z,14.95
2023-05-10T19:27:38.811Z,14.94
2023-05-10T19:30:07.438Z,14.91
2023-05-10T19:32:35.002Z,14.87
2023-05-10T19:35:02.085Z,14.87
2023-05-10T19:37:33.528Z,14.89
2023-05-10T19:40:00.477Z,14.88
2023-05-10T19:42:27.552Z,14.89
2023-05-10T19:44:55.065Z,14.87
2023-05-10T19:47:22.017Z,14.87
2023-05-10T19:49:49.061Z,14.85
2023-05-10T19:52:16.266Z,14.86
2023-05-10T19:54:44.951Z,14.84
2023-05-10T19:57:13.444Z,14.83
2023-05-10T19:59:41.251Z,14.86
2023-05-10T20:02:08.320Z,14.86
2023-05-10T20:04:35.481Z,14.84
2023-05-10T20:07:02.535Z,14.85
2023-05-10T20:09:29.471Z,14.83
2023-05-10T20:11:56.698Z,14.82
2023-05-10T20:14:23.672Z,14.81
2023-05-10T20:16:50.707Z,14.75
2023-05-10T20:19:17.737Z,14.72
2023-05-10T20:21:44.747Z,14.71
2023-05-10T20:24:11.917Z,14.68
2023-05-10T20:26:38.921Z,14.62
2023-05-10T20:29:06.133Z,14.61
2023-05-10T20:31:33.432Z,14.58
2023-05-10T20:34:00.601Z,14.58
2023-05-10T20:36:27.715Z,14.57
2023-05-10T20:38:54.695Z,14.55
2023-05-10T20:41:21.642Z,14.53
2023-05-10T20:43:48.671Z,14.50
2023-05-10T20:46:15.939Z,14.45
2023-05-10T20:48:42.969Z,14.45
2023-05-10T20:51:10.133Z,14.45
2023-05-10T20:53:37.199Z,14.44
2023-05-10T20:56:04.187Z,14.41
2023-05-10T20:58:31.117Z,14.41
2023-05-10T21:00:58.110Z,14.41
2023-05-10T21:03:25.216Z,14.42
2023-05-10T21:05:53.640Z,14.45
2023-05-10T21:08:20.962Z,14.45
2023-05-10T21:10:48.097Z,14.44
2023-05-10T21:13:15.434Z,14.39
2023-05-10T21:15:43.456Z,14.35
2023-05-10T21:18:10.495Z,14.33
2023-05-10T21:20:37.490Z,14.40
2023-05-10T21:23:04.539Z,14.38
2023-05-10T21:25:31.613Z,14.37
2023-05-10T21:27:58.679Z,14.32
2023-05-10T21:30:25.852Z,14.24
2023-05-10T21:32:54.018Z,14.16
2023-05-10T21:35:21.137Z,14.08
2023-05-10T21:37:48.154Z,14.03
2023-05-10T21:40:15.735Z,13.95
2023-05-10T21:42:43.061Z,13.93
2023-05-10T21:45:10.430Z,13.92
2023-05-10T21:47:37.508Z,13.88
2023-05-10T21:50:04.740Z,13.80
2023-05-10T21:52:31.719Z,13.80
2023-05-10T21:54:58.929Z,13.81
2023-05-10T21:57:26.027Z,13.79
2023-05-10T21:59:53.064Z,13.78
2023-05-10T22:02:20.081Z,13.77
2023-05-10T22:04:47.162Z,13.82
2023-05-10T22:07:16.611Z,13.80
2023-05-10T22:09:44.028Z,13.78
2023-05-10T22:12:11.621Z,13.76
2023-05-10T22:14:38.767Z,13.72
2023-05-10T22:17:05.985Z,13.70
2023-05-10T22:19:33.216Z,13.69
2023-05-10T22:22:00.229Z,13.69
2023-05-10T22:24:27.408Z,13.66
2023-05-10T22:26:56.209Z,13.64
2023-05-10T22:29:23.979Z,13.58
2023-05-10T22:31:51.309Z,13.57
2023-05-10T22:34:18.916Z,13.57
2023-05-10T22:36:46.735Z,13.56
2023-05-10T22:39:13.693Z,13.56
2023-05-10T22:41:40.666Z,13.57
2023-05-10T22:44:08.371Z,13.56
2023-05-10T22:46:37.160Z,13.55
2023-05-10T22:49:04.322Z,13.59
2023-05-10T22:51:31.370Z,13.58
2023-05-10T22:53:58.367Z,13.55
2023-05-10T22:56:25.790Z,13.44
2023-05-10T22:58:52.771Z,13.40
2023-05-10T23:01:20.409Z,13.34
2023-05-10T23:03:47.450Z,13.33
2023-05-10T23:06:14.525Z,13.36
2023-05-10T23:08:41.456Z,13.36
2023-05-10T23:11:08.457Z,13.38
2023-05-10T23:13:35.540Z,13.41
2023-05-10T23:16:06.760Z,13.40
2023-05-10T23:18:33.963Z,13.35
2023-05-10T23:21:01.143Z,13.31
2023-05-10T23:23:28.216Z,13.27
2023-05-10T23:25:55.249Z,13.28
2023-05-10T23:28:22.244Z,13.25
2023-05-10T23:30:55.803Z,13.23
2023-05-10T23:33:23.438Z,13.23
2023-05-10T23:35:50.790Z,13.16
2023-05-10T23:38:17.881Z,13.16
2023-05-10T23:40:49.665Z,13.17
2023-05-10T23:43:17.861Z,13.15
2023-05-10T23:45:53.770Z,13.16
2023-05-10T23:48:23.984Z,13.15
2023-05-10T23:50:52.029Z,13.18
2023-05-10T23:53:19.100Z,13.14
2023-05-10T23:55:46.156Z,13.15
2023-05-10T23:58:13.199Z,13.11
